Terminal Aerodrome Forecast
Issued by NWS

Home | Current Version | Previous Version | Text Only | Print | Product List | Glossary On
Versions: 1 2 3 4 5 6 7 8 9 10 11 12 13 14
000
FTUS45 KCYS 111407 AAA
TAFRWL
TAF AMD
KRWL 111407Z 1114/1212 VRB05KT P6SM SKC
     FM112000 25013G24KT P6SM SKC
     FM120000 26008KT P6SM SKC
      AMD LTD TO CLD VIS AND WIND=

USA.gov is the U.S. government's official web portal to all federal, state and local government web resources and services.